createdAt,value
2018-06-02T00:01:28.613Z,86.00
2018-06-02T00:03:57.661Z,85.50
2018-06-02T00:06:26.770Z,85.50
2018-06-02T00:08:55.820Z,85.20
2018-06-02T00:11:25.645Z,85.80
2018-06-02T00:13:54.722Z,85.70
2018-06-02T00:16:24.540Z,86.80
2018-06-02T00:18:53.596Z,86.80
2018-06-02T00:21:22.652Z,87.00
2018-06-02T00:23:51.704Z,86.90
2018-06-02T00:26:21.578Z,87.10
2018-06-02T00:28:50.630Z,87.10
2018-06-02T00:31:19.676Z,87.00
2018-06-02T00:33:48.766Z,86.60
2018-06-02T00:36:17.830Z,86.30
2018-06-02T00:38:46.882Z,86.30
2018-06-02T00:41:16.007Z,86.60
2018-06-02T00:43:45.060Z,85.60
2018-06-02T00:46:14.124Z,86.40
2018-06-02T00:48:43.189Z,86.50
2018-06-02T00:51:12.264Z,86.60
2018-06-02T00:53:42.098Z,86.90
2018-06-02T00:56:11.937Z,86.60
2018-06-02T00:58:41.021Z,86.60
2018-06-02T01:01:10.082Z,86.70
2018-06-02T01:03:39.955Z,86.50
2018-06-02T01:06:08.999Z,86.50
2018-06-02T01:08:38.812Z,86.80
2018-06-02T01:11:08.673Z,86.80
2018-06-02T01:13:37.715Z,86.80
2018-06-02T01:16:07.537Z,87.50
2018-06-02T01:18:36.580Z,87.50
2018-06-02T01:21:06.522Z,87.30
2018-06-02T01:23:35.616Z,87.00
2018-06-02T01:26:04.693Z,87.60
2018-06-02T01:28:33.759Z,86.80
2018-06-02T01:31:02.841Z,87.00
2018-06-02T01:33:31.882Z,87.50
2018-06-02T01:36:00.920Z,87.80
2018-06-02T01:38:30.037Z,87.60
2018-06-02T01:40:59.080Z,87.90
2018-06-02T01:43:28.132Z,88.70
2018-06-02T01:45:57.230Z,88.40
2018-06-02T01:48:26.272Z,88.50
2018-06-02T01:50:56.140Z,89.00
2018-06-02T01:53:25.241Z,89.00
2018-06-02T01:55:54.296Z,88.90
2018-06-02T01:58:23.364Z,89.10
2018-06-02T02:00:52.740Z,89.10
2018-06-02T02:03:21.788Z,89.30
2018-06-02T02:05:50.839Z,89.00
2018-06-02T02:08:19.945Z,89.50
2018-06-02T02:10:49.021Z,89.80
2018-06-02T02:13:18.065Z,90.00
2018-06-02T02:15:47.203Z,89.50
2018-06-02T02:18:16.247Z,89.20
2018-06-02T02:20:46.059Z,88.90
2018-06-02T02:23:15.172Z,88.90
2018-06-02T02:25:44.245Z,88.80
2018-06-02T02:28:14.049Z,89.80
2018-06-02T02:30:43.926Z,90.20
2018-06-02T02:33:12.979Z,90.10
2018-06-02T02:35:42.028Z,90.40
2018-06-02T02:38:11.095Z,90.50
2018-06-02T02:40:40.164Z,90.50
2018-06-02T02:43:09.205Z,90.50
2018-06-02T02:45:38.292Z,90.60
2018-06-02T02:48:07.384Z,90.50
2018-06-02T02:50:36.427Z,90.40
2018-06-02T02:53:06.366Z,90.50
2018-06-02T02:55:35.416Z,90.50
2018-06-02T02:58:04.487Z,90.40
2018-06-02T03:00:33.577Z,90.40
2018-06-02T03:03:02.684Z,90.50
2018-06-02T03:05:31.737Z,90.30
2018-06-02T03:08:00.844Z,90.10
2018-06-02T03:10:29.909Z,90.00
2018-06-02T03:12:59.714Z,90.10
2018-06-02T03:15:29.604Z,90.00
2018-06-02T03:17:58.667Z,90.00
2018-06-02T03:20:27.732Z,90.20
2018-06-02T03:22:56.840Z,90.10
2018-06-02T03:25:25.896Z,90.20
2018-06-02T03:27:54.946Z,90.50
2018-06-02T03:30:24.090Z,90.70
2018-06-02T03:32:53.907Z,90.70
2018-06-02T03:35:23.721Z,90.80
2018-06-02T03:37:53.533Z,90.90
2018-06-02T03:40:23.348Z,91.00
2018-06-02T03:42:53.201Z,91.00
2018-06-02T03:45:22.248Z,91.00
2018-06-02T03:47:52.064Z,91.00
2018-06-02T03:50:21.952Z,91.00
2018-06-02T03:52:51.066Z,91.00
2018-06-02T03:55:20.888Z,91.00
2018-06-02T03:57:50.281Z,91.00
2018-06-02T04:00:20.096Z,91.10
2018-06-02T04:02:49.913Z,91.20
2018-06-02T04:05:19.768Z,91.10
2018-06-02T04:07:48.822Z,91.10
2018-06-02T04:10:18.712Z,91.30
2018-06-02T04:12:47.768Z,91.30
2018-06-02T04:15:16.809Z,91.30
2018-06-02T04:17:46.676Z,91.10
2018-06-02T04:20:15.732Z,91.10
2018-06-02T04:22:45.556Z,91.00
2018-06-02T04:25:15.429Z,90.80
2018-06-02T04:27:44.488Z,90.80
2018-06-02T04:30:13.535Z,90.80
2018-06-02T04:32:43.430Z,90.50
2018-06-02T04:35:12.489Z,90.40
2018-06-02T04:37:41.545Z,90.20
2018-06-02T04:40:11.467Z,90.10
2018-06-02T04:42:41.276Z,89.30
2018-06-02T04:45:11.097Z,88.60
2018-06-02T04:47:40.208Z,88.60
2018-06-02T04:50:09.253Z,88.60
2018-06-02T04:52:38.317Z,89.10
2018-06-02T04:55:07.426Z,88.70
2018-06-02T04:57:36.504Z,87.80
2018-06-02T05:00:05.565Z,87.50
2018-06-02T05:02:35.488Z,87.50
2018-06-02T05:05:04.557Z,87.50
2018-06-02T05:07:34.437Z,87.20
2018-06-02T05:10:03.542Z,87.20
2018-06-02T05:12:32.560Z,86.80
2018-06-02T05:15:02.380Z,86.00
2018-06-02T05:17:32.228Z,86.10
2018-06-02T05:20:01.287Z,86.10
2018-06-02T05:22:31.148Z,86.20
2018-06-02T05:25:00.196Z,86.30
2018-06-02T05:27:30.008Z,85.60
2018-06-02T05:29:59.852Z,85.10
2018-06-02T05:32:28.905Z,85.00
2018-06-02T05:34:58.734Z,85.60
2018-06-02T05:37:28.557Z,85.50
2018-06-02T05:39:57.603Z,85.50
2018-06-02T05:42:26.681Z,85.60
2018-06-02T05:44:55.736Z,85.50
2018-06-02T05:47:24.776Z,84.90
2018-06-02T05:49:53.901Z,84.90
2018-06-02T05:52:23.723Z,84.60
2018-06-02T05:54:53.533Z,83.60
2018-06-02T05:57:23.350Z,83.70
2018-06-02T05:59:53.170Z,82.90
2018-06-02T06:02:22.991Z,82.40
2018-06-02T06:04:52.058Z,82.40
2018-06-02T06:07:21.937Z,81.80
2018-06-02T06:09:51.045Z,81.10
2018-06-02T06:12:20.096Z,80.20
2018-06-02T06:14:49.377Z,80.40
2018-06-02T06:17:19.193Z,81.50
2018-06-02T06:19:48.246Z,81.50
2018-06-02T06:22:17.325Z,80.10
2018-06-02T06:24:46.375Z,79.70
2018-06-02T06:27:15.432Z,79.80
2018-06-02T06:29:44.775Z,80.30
2018-06-02T06:32:13.821Z,80.20
2018-06-02T06:34:42.890Z,80.30
2018-06-02T06:37:12.140Z,79.60
2018-06-02T06:39:41.960Z,76.90
2018-06-02T06:42:11.778Z,77.30
2018-06-02T06:44:41.657Z,75.60
2018-06-02T06:47:10.664Z,75.60
2018-06-02T06:49:39.777Z,75.00
2018-06-02T06:52:09.613Z,74.30
2018-06-02T06:54:38.701Z,74.30
2018-06-02T06:57:07.816Z,71.60
2018-06-02T06:59:36.872Z,71.40
2018-06-02T07:02:06.694Z,70.30
2018-06-02T07:04:36.558Z,70.40
2018-06-02T07:07:05.597Z,70.40
2018-06-02T07:09:35.428Z,71.10
2018-06-02T07:12:04.841Z,71.10
2018-06-02T07:14:34.631Z,69.60
2018-06-02T07:17:03.688Z,69.60
2018-06-02T07:19:32.751Z,68.60
2018-06-02T07:22:01.816Z,68.50
2018-06-02T07:24:30.956Z,68.60
2018-06-02T07:27:00.019Z,68.90
2018-06-02T07:29:29.061Z,68.60
2018-06-02T07:31:58.155Z,67.60
2018-06-02T07:34:27.211Z,67.30
2018-06-02T07:36:56.280Z,66.40
2018-06-02T07:39:26.095Z,65.10
2018-06-02T07:41:55.198Z,64.30
2018-06-02T07:44:24.294Z,64.80
2018-06-02T07:46:54.121Z,63.80
2018-06-02T07:49:23.161Z,63.70
2018-06-02T07:51:52.224Z,63.70
2018-06-02T07:54:21.308Z,64.40
2018-06-02T07:56:50.362Z,64.80
2018-06-02T07:59:20.205Z,65.80
2018-06-02T08:01:49.241Z,65.70
2018-06-02T08:04:18.329Z,65.10
2018-06-02T08:06:47.381Z,65.10
2018-06-02T08:09:16.456Z,64.20
2018-06-02T08:11:46.305Z,63.10
2018-06-02T08:14:15.395Z,63.10
2018-06-02T08:16:44.463Z,64.10
2018-06-02T08:19:14.397Z,64.40
2018-06-02T08:21:43.477Z,64.40
2018-06-02T08:24:12.532Z,64.40
2018-06-02T08:26:41.618Z,64.90
2018-06-02T08:29:10.799Z,64.20
2018-06-02T08:31:39.891Z,65.70
2018-06-02T08:34:08.954Z,65.80
2018-06-02T08:36:38.706Z,61.90
2018-06-02T08:39:07.820Z,62.70
2018-06-02T08:41:38.110Z,63.60
2018-06-02T08:44:07.767Z,63.80
2018-06-02T08:46:37.072Z,64.10
2018-06-02T08:49:06.920Z,64.10
2018-06-02T08:51:36.021Z,64.10
2018-06-02T08:54:05.089Z,64.30
2018-06-02T08:56:34.920Z,59.60
2018-06-02T08:59:03.980Z,59.60
2018-06-02T09:01:33.075Z,60.70
2018-06-02T09:04:02.162Z,61.80
2018-06-02T09:06:31.260Z,62.50
2018-06-02T09:09:00.330Z,58.70
2018-06-02T09:11:30.175Z,56.10
2018-06-02T09:13:59.232Z,56.60
2018-06-02T09:16:28.348Z,57.30
2018-06-02T09:18:57.429Z,59.20
2018-06-02T09:21:26.479Z,58.00
2018-06-02T09:23:55.551Z,56.60
2018-06-02T09:26:25.364Z,57.00
2018-06-02T09:28:55.223Z,56.40
2018-06-02T09:31:24.285Z,56.30
2018-06-02T09:33:54.127Z,57.70
2018-06-02T09:36:23.178Z,57.70
2018-06-02T09:38:53.037Z,61.70
2018-06-02T09:41:22.119Z,61.70
2018-06-02T09:43:51.192Z,60.60
2018-06-02T09:46:21.011Z,64.90
2018-06-02T09:48:50.090Z,64.90
2018-06-02T09:51:19.962Z,69.30
2018-06-02T09:53:49.011Z,69.20
2018-06-02T09:56:18.845Z,69.00
2018-06-02T09:58:47.997Z,69.00
2018-06-02T10:01:17.060Z,68.60
2018-06-02T10:03:46.475Z,65.90
2018-06-02T10:06:15.578Z,62.60
2018-06-02T10:08:44.638Z,60.00
2018-06-02T10:11:13.753Z,61.70
2018-06-02T10:13:42.943Z,58.50
2018-06-02T10:16:12.040Z,57.70
2018-06-02T10:18:41.135Z,57.30
2018-06-02T10:21:10.263Z,57.00
2018-06-02T10:23:39.314Z,55.60
2018-06-02T10:26:08.364Z,50.90
2018-06-02T10:28:38.247Z,50.70
2018-06-02T10:31:07.297Z,50.60
2018-06-02T10:33:36.345Z,48.20
2018-06-02T10:36:05.664Z,49.60
2018-06-02T10:38:35.464Z,52.00
2018-06-02T10:41:04.522Z,51.20
2018-06-02T10:43:33.622Z,51.50
2018-06-02T10:46:02.658Z,51.80
2018-06-02T10:48:32.476Z,54.20
2018-06-02T10:51:02.329Z,54.00
2018-06-02T10:53:31.393Z,53.90
2018-06-02T10:56:01.190Z,55.10
2018-06-02T10:58:31.067Z,53.90
2018-06-02T11:01:00.874Z,52.30
2018-06-02T11:03:29.926Z,52.20
2018-06-02T11:05:59.796Z,50.80
2018-06-02T11:08:28.844Z,50.80
2018-06-02T11:10:57.892Z,50.00
2018-06-02T11:13:32.213Z,50.90
2018-06-02T11:16:01.272Z,50.80
2018-06-02T11:18:30.321Z,50.90
2018-06-02T11:21:00.173Z,52.10
2018-06-02T11:23:29.216Z,52.10
2018-06-02T11:25:58.262Z,52.00
2018-06-02T11:28:27.390Z,52.70
2018-06-02T11:30:57.208Z,52.40
2018-06-02T11:33:26.297Z,52.40
2018-06-02T11:35:55.516Z,50.80
2018-06-02T11:38:25.255Z,50.60
2018-06-02T11:40:54.306Z,50.60
2018-06-02T11:43:23.433Z,52.00
2018-06-02T11:45:53.244Z,49.10
2018-06-02T11:48:23.053Z,49.00
2018-06-02T11:50:52.927Z,48.20
2018-06-02T11:53:21.978Z,48.20
2018-06-02T11:55:51.021Z,45.80
2018-06-02T11:58:20.370Z,46.10
2018-06-02T12:00:49.421Z,47.50
2018-06-02T12:03:18.478Z,48.80
2018-06-02T12:05:47.571Z,50.30
2018-06-02T12:08:16.619Z,50.60
2018-06-02T12:10:45.668Z,50.60
2018-06-02T12:13:14.883Z,49.80
2018-06-02T12:15:44.037Z,49.80
2018-06-02T12:18:13.077Z,47.20
2018-06-02T12:20:42.193Z,47.60
2018-06-02T12:23:11.286Z,49.50
2018-06-02T12:25:40.316Z,50.50
2018-06-02T12:28:09.403Z,51.70
2018-06-02T12:30:39.196Z,54.40
2018-06-02T12:33:08.284Z,54.40
2018-06-02T12:35:37.346Z,55.10
2018-06-02T12:38:06.400Z,51.70
2018-06-02T12:40:36.261Z,47.90
2018-06-02T12:43:05.302Z,48.00
2018-06-02T12:45:35.169Z,47.60
2018-06-02T12:48:05.240Z,48.00
2018-06-02T12:50:35.039Z,48.50
2018-06-02T12:53:04.854Z,49.20
2018-06-02T12:55:34.680Z,50.50
2018-06-02T12:58:03.729Z,50.50
2018-06-02T13:00:32.951Z,52.00
2018-06-02T13:03:02.009Z,52.60
2018-06-02T13:05:31.065Z,54.20
2018-06-02T13:08:00.157Z,56.10
2018-06-02T13:10:29.203Z,57.80
2018-06-02T13:12:58.251Z,59.30
2018-06-02T13:15:27.388Z,62.50
2018-06-02T13:17:56.591Z,64.00
2018-06-02T13:20:25.629Z,64.10
2018-06-02T13:22:55.485Z,66.00
2018-06-02T13:25:24.529Z,66.00
2018-06-02T13:27:54.355Z,68.30
2018-06-02T13:30:23.442Z,68.30
2018-06-02T13:32:53.263Z,69.50
2018-06-02T13:35:22.293Z,69.50
2018-06-02T13:37:51.345Z,68.30
2018-06-02T13:40:21.169Z,66.40
2018-06-02T13:42:50.278Z,66.40
2018-06-02T13:45:19.325Z,66.50
2018-06-02T13:47:49.157Z,66.60
2018-06-02T13:50:19.055Z,67.30
2018-06-02T13:52:48.117Z,67.10
2018-06-02T13:55:17.177Z,68.90
2018-06-02T13:57:46.297Z,69.70
2018-06-02T14:00:15.337Z,71.60
2018-06-02T14:02:45.160Z,73.10
2018-06-02T14:05:15.048Z,74.60
2018-06-02T14:07:44.119Z,74.60
2018-06-02T14:10:13.158Z,75.10
2018-06-02T14:12:43.119Z,79.40
2018-06-02T14:15:12.157Z,79.40
2018-06-02T14:17:41.207Z,79.00
2018-06-02T14:20:10.517Z,80.20
2018-06-02T14:22:39.561Z,81.80
2018-06-02T14:25:09.371Z,82.50
2018-06-02T14:27:39.329Z,82.00
2018-06-02T14:30:08.375Z,82.00
2018-06-02T14:32:37.396Z,82.50
2018-06-02T14:35:06.518Z,81.90
2018-06-02T14:37:35.621Z,83.20
2018-06-02T14:40:04.697Z,84.80
2018-06-02T14:42:33.819Z,85.90
2018-06-02T14:45:02.862Z,86.70
2018-06-02T14:47:31.921Z,86.30
2018-06-02T14:50:01.033Z,85.50
2018-06-02T14:52:30.850Z,86.40
2018-06-02T14:55:00.665Z,86.60
2018-06-02T14:57:30.478Z,86.40
2018-06-02T15:00:00.302Z,88.40
2018-06-02T15:02:29.369Z,88.30
2018-06-02T15:04:58.429Z,89.50
2018-06-02T15:07:27.530Z,89.80
2018-06-02T15:09:56.574Z,89.50
2018-06-02T15:12:26.392Z,89.30
2018-06-02T15:14:55.565Z,89.30
2018-06-02T15:17:25.395Z,88.80
2018-06-02T15:19:55.208Z,88.60
2018-06-02T15:22:24.293Z,88.60
2018-06-02T15:24:54.104Z,87.90
2018-06-02T15:27:24.021Z,88.60
2018-06-02T15:29:53.833Z,88.30
2018-06-02T15:32:23.641Z,88.10
2018-06-02T15:34:53.464Z,87.20
2018-06-02T15:37:23.278Z,87.10
2018-06-02T15:39:53.103Z,87.50
2018-06-02T15:42:22.149Z,87.50
2018-06-02T15:44:51.248Z,87.10
2018-06-02T15:47:20.303Z,83.70
2018-06-02T15:49:49.438Z,82.20
2018-06-02T15:52:18.546Z,78.90
2018-06-02T15:54:47.590Z,76.10
2018-06-02T15:57:16.651Z,71.40
2018-06-02T15:59:46.508Z,67.90
2018-06-02T16:02:15.560Z,67.80
2018-06-02T16:04:45.376Z,64.00
2018-06-02T16:07:15.243Z,60.90
2018-06-02T16:09:44.291Z,60.90
2018-06-02T16:12:13.331Z,61.40
2018-06-02T16:14:42.434Z,60.00
2018-06-02T16:17:11.493Z,59.00
2018-06-02T16:19:40.533Z,59.30
2018-06-02T16:22:09.635Z,57.60
2018-06-02T16:24:38.725Z,57.20
2018-06-02T16:27:07.770Z,57.60
2018-06-02T16:29:36.844Z,56.20
2018-06-02T16:32:06.688Z,56.10
2018-06-02T16:34:35.720Z,56.00
2018-06-02T16:37:04.833Z,55.60
2018-06-02T16:39:34.642Z,52.10
2018-06-02T16:42:04.486Z,52.10
2018-06-02T16:44:33.535Z,52.10
2018-06-02T16:47:02.577Z,51.60
2018-06-02T16:49:31.721Z,50.70
2018-06-02T16:52:01.529Z,51.50
2018-06-02T16:54:30.583Z,51.50
2018-06-02T16:56:59.698Z,53.30
2018-06-02T16:59:29.500Z,54.50
2018-06-02T17:01:58.590Z,54.50
2018-06-02T17:04:27.677Z,54.50
2018-06-02T17:06:56.722Z,56.30
2018-06-02T17:09:25.771Z,57.10
2018-06-02T17:11:54.894Z,56.70
2018-06-02T17:14:23.941Z,58.20
2018-06-02T17:16:52.989Z,60.40
2018-06-02T17:19:22.192Z,62.30
2018-06-02T17:21:51.241Z,63.50
2018-06-02T17:24:20.292Z,65.80
2018-06-02T17:26:49.632Z,67.30
2018-06-02T17:29:18.674Z,68.30
2018-06-02T17:31:47.729Z,69.80
2018-06-02T17:34:16.837Z,71.40
2018-06-02T17:36:45.884Z,71.90
2018-06-02T17:39:15.706Z,75.10
2018-06-02T17:41:49.785Z,76.10
2018-06-02T17:44:18.831Z,76.10
2018-06-02T17:46:47.902Z,77.00
2018-06-02T17:49:17.722Z,78.70
2018-06-02T17:51:46.769Z,78.70
2018-06-02T17:54:15.893Z,79.90
2018-06-02T17:56:44.965Z,80.60
2018-06-02T17:59:15.493Z,81.80
2018-06-02T18:01:45.680Z,83.20
2018-06-02T18:04:16.130Z,83.60
2018-06-02T18:06:46.193Z,84.30
2018-06-02T18:09:16.000Z,85.50
2018-06-02T18:11:45.826Z,85.50
2018-06-02T18:14:14.882Z,85.50
2018-06-02T18:16:43.918Z,85.80
2018-06-02T18:19:13.029Z,86.20
2018-06-02T18:21:42.101Z,86.60
2018-06-02T18:24:11.932Z,87.70
2018-06-02T18:26:41.069Z,87.70
2018-06-02T18:29:10.189Z,88.40
2018-06-02T18:31:40.002Z,88.60
2018-06-02T18:34:09.829Z,89.30
2018-06-02T18:36:38.881Z,88.60
2018-06-02T18:39:07.938Z,88.90
2018-06-02T18:41:37.365Z,89.10
2018-06-02T18:44:06.428Z,89.10
2018-06-02T18:46:35.461Z,89.30
2018-06-02T18:49:04.532Z,89.90
2018-06-02T18:51:33.582Z,90.00
2018-06-02T18:54:03.401Z,90.10
2018-06-02T18:56:33.217Z,90.10
2018-06-02T18:59:03.026Z,90.20
2018-06-02T19:01:32.917Z,90.30
2018-06-02T19:04:01.958Z,90.30
2018-06-02T19:06:30.998Z,90.40
2018-06-02T19:09:00.152Z,90.60
2018-06-02T19:11:29.943Z,90.60
2018-06-02T19:13:59.757Z,90.70
2018-06-02T19:16:29.564Z,90.70
2018-06-02T19:18:59.382Z,90.60
2018-06-02T19:21:29.196Z,90.70
2018-06-02T19:23:58.268Z,90.70
2018-06-02T19:26:27.368Z,90.90
2018-06-02T19:28:56.406Z,90.90
2018-06-02T19:31:25.511Z,90.80
2018-06-02T19:33:54.628Z,91.00
2018-06-02T19:36:23.670Z,91.00
2018-06-02T19:38:52.720Z,91.00
2018-06-02T19:41:21.842Z,90.80
2018-06-02T19:43:51.673Z,91.00
2018-06-02T19:46:20.713Z,91.00
2018-06-02T19:48:49.785Z,91.00
2018-06-02T19:51:18.857Z,91.00
2018-06-02T19:53:47.914Z,91.10
2018-06-02T19:56:17.154Z,91.00
2018-06-02T19:58:46.194Z,91.00
2018-06-02T20:01:15.255Z,91.10
2018-06-02T20:03:44.316Z,91.00
2018-06-02T20:06:14.129Z,91.10
2018-06-02T20:08:43.929Z,91.00
2018-06-02T20:11:13.137Z,91.00
2018-06-02T20:13:43.023Z,91.10
2018-06-02T20:16:12.052Z,91.10
2018-06-02T20:18:41.952Z,91.10
2018-06-02T20:21:10.986Z,91.10
2018-06-02T20:23:40.030Z,91.20
2018-06-02T20:26:09.116Z,91.00
2018-06-02T20:28:38.149Z,91.10
2018-06-02T20:31:07.198Z,91.20
2018-06-02T20:33:36.345Z,91.40
2018-06-02T20:36:05.461Z,91.50
2018-06-02T20:38:34.465Z,91.50
2018-06-02T20:41:03.562Z,91.50
2018-06-02T20:43:32.608Z,91.50
2018-06-02T20:46:02.414Z,91.20
2018-06-02T20:48:32.245Z,91.30
2018-06-02T20:51:01.313Z,91.20
2018-06-02T20:53:30.360Z,91.20
2018-06-02T20:55:59.426Z,91.30
2018-06-02T20:58:28.462Z,91.50
2018-06-02T21:00:57.506Z,91.50
2018-06-02T21:03:27.350Z,91.80
2018-06-02T21:05:56.392Z,91.70
2018-06-02T21:08:25.460Z,92.00
2018-06-02T21:10:55.325Z,91.70
2018-06-02T21:13:24.369Z,91.70
2018-06-02T21:15:54.197Z,91.80
2018-06-02T21:18:23.298Z,91.80
2018-06-02T21:20:52.351Z,91.80
2018-06-02T21:23:21.441Z,91.70
2018-06-02T21:25:50.516Z,91.40
2018-06-02T21:28:19.570Z,91.50
2018-06-02T21:30:48.616Z,91.70
2018-06-02T21:33:17.700Z,91.80
2018-06-02T21:35:46.754Z,92.00
2018-06-02T21:38:15.833Z,92.00
2018-06-02T21:40:44.912Z,92.10
2018-06-02T21:43:13.944Z,92.20
2018-06-02T21:45:43.038Z,92.10
2018-06-02T21:48:12.869Z,91.90
2018-06-02T21:50:42.701Z,92.00
2018-06-02T21:53:11.755Z,92.00
2018-06-02T21:55:40.879Z,92.00
2018-06-02T21:58:10.708Z,92.10
2018-06-02T22:00:39.781Z,92.10
2018-06-02T22:03:09.602Z,92.00
2018-06-02T22:05:39.428Z,92.10
2018-06-02T22:08:08.493Z,92.10
2018-06-02T22:10:38.305Z,92.00
2018-06-02T22:13:08.218Z,92.10
2018-06-02T22:16:00.678Z,92.10
2018-06-02T22:18:30.489Z,92.30
2018-06-02T22:21:00.322Z,92.10
2018-06-02T22:23:29.369Z,92.10
2018-06-02T22:26:21.430Z,92.10
2018-06-02T22:28:50.493Z,92.30
2018-06-02T22:31:19.572Z,92.40
2018-06-02T22:33:48.608Z,92.50
2018-06-02T22:36:18.513Z,92.60
2018-06-02T22:38:47.546Z,92.60
2018-06-02T22:41:16.594Z,92.60
2018-06-02T22:43:45.667Z,92.80
2018-06-02T22:46:14.771Z,92.70
2018-06-02T22:48:43.826Z,92.60
2018-06-02T22:51:12.873Z,92.50
2018-06-02T22:53:41.961Z,92.60
2018-06-02T22:56:11.012Z,92.30
2018-06-02T22:58:40.096Z,92.10
2018-06-02T23:01:09.142Z,92.00
2018-06-02T23:03:38.209Z,92.10
2018-06-02T23:06:07.285Z,92.40
2018-06-02T23:08:36.393Z,92.40
2018-06-02T23:11:05.449Z,92.50
2018-06-02T23:13:35.297Z,92.40
2018-06-02T23:16:04.333Z,92.40
2018-06-02T23:18:33.402Z,92.50
2018-06-02T23:21:02.514Z,92.90
2018-06-02T23:23:31.573Z,92.60
2018-06-02T23:26:00.663Z,92.70
2018-06-02T23:28:29.740Z,92.80
2018-06-02T23:30:59.573Z,92.90
2018-06-02T23:33:28.647Z,92.80
2018-06-02T23:35:58.470Z,92.60
2018-06-02T23:38:27.521Z,92.60
2018-06-02T23:40:56.592Z,92.60
2018-06-02T23:43:25.637Z,92.70
2018-06-02T23:45:55.480Z,92.70
2018-06-02T23:48:24.592Z,92.70
2018-06-02T23:50:53.635Z,92.80
2018-06-02T23:53:23.444Z,93.10
2018-06-02T23:55:53.342Z,93.20
2018-06-02T23:58:22.391Z,93.20
